Time;durP1;ratioP1;P1;durP2;ratioP2;P2;SDS_P1;SDS_P2;PMS_P1;PMS_P2;Temp;Humidity;BMP_temperature;BMP_pressure;BME280_temperature;BME280_humidity;BME280_pressure;Samples;Min_cycle;Max_cycle;Signal;HPM_P1;HPM_P2
2021/12/08 00:02:11;;;;;;;2.73;1.90;;;5.90;54.40;;;;;;4958470;28;20705;-53
2021/12/08 00:04:37;;;;;;;2.80;2.10;;;5.80;54.30;;;;;;4959568;28;20461;-53
2021/12/08 00:07:05;;;;;;;2.27;1.83;;;5.70;54.70;;;;;;4960458;28;20617;-52
2021/12/08 00:14:54;;;;;;;2.90;2.33;;;6.00;54.80;;;;;;4962374;28;20460;-52
2021/12/08 00:17:20;;;;;;;2.87;2.57;;;6.10;54.50;;;;;;4959899;28;20488;-52
2021/12/08 00:19:46;;;;;;;3.23;2.00;;;6.10;53.70;;;;;;4959321;28;20816;-53
2021/12/08 00:22:12;;;;;;;3.77;2.03;;;6.10;53.20;;;;;;4964026;28;20191;-51
2021/12/08 00:24:39;;;;;;;1.90;1.70;;;6.10;53.60;;;;;;4959021;28;20208;-55
2021/12/08 00:27:05;;;;;;;1.97;1.70;;;5.90;53.30;;;;;;4962871;28;20219;-51
2021/12/08 00:29:30;;;;;;;3.53;2.00;;;6.00;53.40;;;;;;4955610;28;20454;-54
2021/12/08 00:31:56;;;;;;;4.17;2.20;;;6.00;53.00;;;;;;4961553;28;20454;-53
2021/12/08 00:34:23;;;;;;;4.57;2.97;;;6.20;53.20;;;;;;4960907;28;20199;-52
2021/12/08 00:36:52;;;;;;;2.33;1.87;;;6.20;52.60;;;;;;4959542;28;21032;-55
2021/12/08 00:39:17;;;;;;;3.80;2.30;;;6.10;53.10;;;;;;4958871;28;20450;-53
2021/12/08 00:41:43;;;;;;;5.13;2.00;;;6.00;53.10;;;;;;4960766;28;20481;-52
2021/12/08 00:44:10;;;;;;;2.63;1.77;;;6.20;53.20;;;;;;4960621;28;20202;-51
2021/12/08 00:46:37;;;;;;;1.60;1.50;;;6.20;53.30;;;;;;4958058;28;20191;-52
2021/12/08 00:49:04;;;;;;;2.30;1.90;;;6.20;53.50;;;;;;4966268;28;20457;-55
2021/12/08 00:51:30;;;;;;;2.50;2.30;;;6.10;53.60;;;;;;4963170;28;20456;-53
2021/12/08 00:53:56;;;;;;;2.93;2.20;;;5.90;54.10;;;;;;4963551;28;20628;-53
2021/12/08 00:56:21;;;;;;;3.47;2.20;;;5.90;55.00;;;;;;4963338;28;20486;-54
2021/12/08 00:58:47;;;;;;;2.40;1.93;;;5.90;56.10;;;;;;4959516;28;20199;-52
2021/12/08 01:01:13;;;;;;;4.03;2.03;;;5.80;56.20;;;;;;4956820;28;20195;-53
2021/12/08 01:03:39;;;;;;;2.90;2.10;;;5.70;56.40;;;;;;4960957;28;20191;-53
2021/12/08 01:06:05;;;;;;;2.80;1.87;;;5.70;57.10;;;;;;4957445;28;20462;-54
2021/12/08 01:08:32;;;;;;;2.40;2.20;;;5.50;58.30;;;;;;4958987;28;20475;-52
2021/12/08 01:11:03;;;;;;;4.63;1.83;;;5.60;59.00;;;;;;4956769;28;20456;-53
2021/12/08 01:13:29;;;;;;;2.27;2.00;;;5.70;59.00;;;;;;4955844;28;20553;-54
2021/12/08 01:15:58;;;;;;;3.83;2.60;;;5.70;59.50;;;;;;4963574;28;21163;-55
2021/12/08 01:18:25;;;;;;;3.70;2.23;;;5.60;60.50;;;;;;4964071;28;20187;-55
2021/12/08 01:20:52;;;;;;;3.23;2.57;;;5.70;61.10;;;;;;4959850;28;20522;-52
2021/12/08 01:23:18;;;;;;;3.30;2.20;;;5.60;60.90;;;;;;4960935;28;20444;-54
2021/12/08 01:25:45;;;;;;;2.67;2.20;;;5.30;62.10;;;;;;4959439;28;20864;-52
2021/12/08 01:28:10;;;;;;;2.03;1.83;;;5.10;63.20;;;;;;4961066;28;20450;-55
2021/12/08 01:30:37;;;;;;;3.17;2.40;;;5.20;63.30;;;;;;4960369;28;20809;-54
2021/12/08 01:33:03;;;;;;;7.03;2.77;;;5.50;63.30;;;;;;4960464;28;20609;-56
2021/12/08 01:35:29;;;;;;;4.70;1.90;;;5.70;62.50;;;;;;4963301;28;20451;-54
2021/12/08 01:37:55;;;;;;;3.83;1.87;;;5.50;61.20;;;;;;4963083;28;20502;-54
2021/12/08 01:40:21;;;;;;;2.83;2.33;;;5.50;61.70;;;;;;4960993;28;20443;-52
2021/12/08 01:42:50;;;;;;;2.50;1.90;;;5.80;61.70;;;;;;4963230;28;20196;-52
2021/12/08 01:48:06;;;;;;;2.07;1.80;;;6.40;60.70;;;;;;4965395;28;20815;-53
2021/12/08 01:50:33;;;;;;;5.17;2.40;;;6.40;60.60;;;;;;4967908;28;20500;-52
2021/12/08 01:52:59;;;;;;;5.47;2.40;;;6.70;59.90;;;;;;4962293;28;20447;-53
2021/12/08 01:55:25;;;;;;;5.10;2.43;;;6.80;59.70;;;;;;4967884;28;20493;-52
2021/12/08 01:57:51;;;;;;;3.93;1.63;;;6.90;59.70;;;;;;4966690;28;20668;-55
2021/12/08 02:00:25;;;;;;;3.40;2.00;;;6.80;60.40;;;;;;4962312;28;20207;-51
2021/12/08 02:02:50;;;;;;;2.50;1.53;;;6.60;59.70;;;;;;4962878;28;20825;-54
2021/12/08 02:05:17;;;;;;;3.73;1.60;;;6.50;60.20;;;;;;4959876;28;20439;-55
2021/12/08 02:07:43;;;;;;;2.70;2.07;;;6.30;60.80;;;;;;4961858;28;20727;-52
2021/12/08 02:10:10;;;;;;;3.07;1.90;;;6.30;61.70;;;;;;4961558;28;20500;-55
2021/12/08 02:12:39;;;;;;;1.50;1.33;;;6.30;61.50;;;;;;4963057;28;20450;-54
2021/12/08 02:15:08;;;;;;;3.50;2.40;;;5.90;62.20;;;;;;4960020;28;20461;-54
2021/12/08 02:17:34;;;;;;;3.03;2.83;;;5.80;63.40;;;;;;4962117;28;20502;-51
2021/12/08 02:20:02;;;;;;;3.33;2.20;;;5.80;63.80;;;;;;4959742;28;20453;-52
2021/12/08 02:22:28;;;;;;;2.63;2.10;;;5.80;64.40;;;;;;4970592;28;20195;-55
2021/12/08 02:24:54;;;;;;;2.70;2.17;;;5.80;64.50;;;;;;4962808;28;20450;-55
2021/12/08 02:27:19;;;;;;;2.97;1.83;;;5.80;64.90;;;;;;4962815;28;20194;-55
2021/12/08 02:29:54;;;;;;;3.37;2.00;;;5.90;65.00;;;;;;4962159;28;20207;-54
2021/12/08 02:48:30;;;;;;;3.40;2.00;;;6.40;64.30;;;;;;4960944;28;20533;-55
2021/12/08 02:50:56;;;;;;;3.80;2.23;;;6.50;64.20;;;;;;4965903;28;20450;-53
2021/12/08 02:53:23;;;;;;;2.70;2.10;;;6.70;64.00;;;;;;4970988;28;20450;-55
2021/12/08 02:55:48;;;;;;;3.87;2.43;;;7.00;63.30;;;;;;4973409;28;20982;-54
2021/12/08 02:58:16;;;;;;;3.27;2.20;;;7.20;62.50;;;;;;4968134;28;20552;-54
2021/12/08 03:01:04;;;;;;;2.50;2.07;;;7.40;62.30;;;;;;4962220;28;21867;-52
2021/12/08 03:03:30;;;;;;;2.80;2.07;;;7.50;61.80;;;;;;4959246;28;20447;-55
2021/12/08 03:05:55;;;;;;;4.13;2.20;;;7.60;61.80;;;;;;4959753;28;20496;-52
2021/12/08 03:08:21;;;;;;;2.30;1.80;;;7.30;62.50;;;;;;4960455;28;20195;-52
2021/12/08 03:10:51;;;;;;;1.60;1.50;;;7.30;62.90;;;;;;4958828;28;20196;-54
2021/12/08 03:13:17;;;;;;;3.27;1.80;;;7.10;63.30;;;;;;4960931;28;20204;-55
2021/12/08 03:15:43;;;;;;;3.67;2.20;;;7.00;64.00;;;;;;4959217;28;20808;-54
2021/12/08 03:18:09;;;;;;;2.70;2.27;;;6.90;64.80;;;;;;4963233;28;20451;-54
2021/12/08 03:20:40;;;;;;;1.80;1.70;;;6.80;65.40;;;;;;4962402;28;20472;-53
2021/12/08 03:23:14;;;;;;;2.83;1.53;;;6.80;66.00;;;;;;4959765;28;20539;-55
2021/12/08 03:25:43;;;;;;;2.43;1.70;;;6.60;66.60;;;;;;4961528;28;20455;-51
2021/12/08 03:28:21;;;;;;;4.60;1.80;;;6.90;66.40;;;;;;4958000;28;21053;-54
2021/12/08 03:31:12;;;;;;;5.63;2.17;;;7.10;65.60;;;;;;4958054;28;22151;-55
2021/12/08 03:33:38;;;;;;;3.10;1.83;;;7.20;65.10;;;;;;4962529;28;20458;-52
2021/12/08 03:36:05;;;;;;;2.97;2.30;;;7.20;65.20;;;;;;4958252;28;20495;-54
2021/12/08 03:38:31;;;;;;;2.27;2.07;;;7.00;65.40;;;;;;4957935;28;21616;-52
2021/12/08 03:40:58;;;;;;;3.33;2.03;;;6.90;66.60;;;;;;4956713;28;20450;-55
2021/12/08 03:43:24;;;;;;;2.40;2.00;;;6.90;66.60;;;;;;4957755;28;20479;-54
2021/12/08 03:45:51;;;;;;;3.20;2.00;;;6.80;67.00;;;;;;4957665;28;20481;-52
2021/12/08 03:48:27;;;;;;;3.27;2.03;;;7.10;67.00;;;;;;4959818;28;20439;-52
2021/12/08 03:50:53;;;;;;;2.10;1.90;;;7.30;66.00;;;;;;4964970;28;20439;-54
2021/12/08 03:53:18;;;;;;;1.97;1.80;;;7.30;66.00;;;;;;4962933;28;20439;-55
2021/12/08 03:55:47;;;;;;;4.10;2.00;;;7.50;65.30;;;;;;4956566;28;22348;-55
2021/12/08 03:58:13;;;;;;;3.40;1.90;;;7.20;65.40;;;;;;4959492;28;20200;-52
2021/12/08 04:00:42;;;;;;;3.00;2.43;;;7.20;65.70;;;;;;4959951;28;20454;-54
2021/12/08 04:03:08;;;;;;;2.03;1.87;;;7.40;66.10;;;;;;4958436;28;20500;-55
2021/12/08 04:08:30;;;;;;;5.77;1.90;;;7.30;66.50;;;;;;4961095;28;20525;-55
2021/12/08 04:10:57;;;;;;;2.53;2.00;;;7.30;66.80;;;;;;4955961;28;20466;-55
2021/12/08 04:13:32;;;;;;;2.43;1.73;;;7.30;67.40;;;;;;4955562;28;20475;-55
2021/12/08 04:15:58;;;;;;;2.57;2.00;;;7.30;67.70;;;;;;4959125;28;20478;-55
2021/12/08 04:18:25;;;;;;;3.90;1.90;;;7.30;67.70;;;;;;4963228;28;20528;-53
2021/12/08 04:20:54;;;;;;;2.37;2.17;;;7.50;67.40;;;;;;4959659;28;20443;-55
2021/12/08 04:23:22;;;;;;;2.00;1.70;;;7.70;66.90;;;;;;4957885;28;20452;-52
2021/12/08 04:25:51;;;;;;;2.53;2.00;;;7.90;66.40;;;;;;4958609;28;20462;-53
2021/12/08 04:28:22;;;;;;;2.53;1.97;;;8.00;65.70;;;;;;4958075;28;20450;-55
2021/12/08 04:31:02;;;;;;;3.50;2.30;;;8.10;65.70;;;;;;4959572;28;20454;-55
2021/12/08 04:33:28;;;;;;;3.73;2.23;;;8.20;65.30;;;;;;4958168;28;20516;-55
2021/12/08 04:35:55;;;;;;;7.30;2.13;;;8.30;65.00;;;;;;4967199;28;20455;-55
2021/12/08 04:38:29;;;;;;;2.87;2.40;;;8.40;64.60;;;;;;4959673;28;20673;-53
2021/12/08 04:41:06;;;;;;;2.37;2.10;;;8.50;64.60;;;;;;4960610;28;20536;-55
2021/12/08 04:43:43;;;;;;;2.90;1.77;;;8.60;64.40;;;;;;4959631;28;20454;-56
2021/12/08 05:07:53;;;;;;;2.70;2.50;;;8.60;65.60;;;;;;4958167;28;20451;-53
2021/12/08 05:10:33;;;;;;;3.03;2.73;;;8.70;65.30;;;;;;4958940;28;20956;-53
2021/12/08 05:13:02;;;;;;;3.90;2.70;;;8.80;64.90;;;;;;4959375;28;20455;-53
2021/12/08 05:15:34;;;;;;;3.60;2.40;;;8.80;64.90;;;;;;4959941;28;20446;-55
2021/12/08 05:18:05;;;;;;;4.30;2.80;;;8.90;65.10;;;;;;4959082;28;20486;-53
2021/12/08 05:20:37;;;;;;;6.73;5.00;;;8.90;64.70;;;;;;4957283;28;20463;-54
2021/12/08 05:23:09;;;;;;;3.37;2.70;;;8.70;64.40;;;;;;4958046;28;20837;-54
2021/12/08 05:25:37;;;;;;;5.00;3.00;;;8.50;65.40;;;;;;4958221;28;20949;-54
2021/12/08 05:28:06;;;;;;;2.60;2.40;;;8.30;65.90;;;;;;4958009;28;20526;-54
2021/12/08 05:30:31;;;;;;;6.43;2.57;;;8.10;66.70;;;;;;4959232;28;20473;-54
2021/12/08 05:32:59;;;;;;;3.70;2.70;;;8.30;66.80;;;;;;4957292;28;20542;-54
2021/12/08 05:35:27;;;;;;;4.33;2.60;;;8.50;66.30;;;;;;4958047;28;20273;-52
2021/12/08 05:37:52;;;;;;;3.60;2.90;;;8.60;66.20;;;;;;4959652;28;21275;-55
2021/12/08 05:40:47;;;;;;;4.90;3.10;;;8.40;65.70;;;;;;4958836;28;20457;-54
2021/12/08 05:43:14;;;;;;;3.20;2.17;;;8.50;66.00;;;;;;4952811;28;20610;-52
2021/12/08 05:45:40;;;;;;;3.50;2.67;;;8.50;66.30;;;;;;4955867;28;20443;-53
2021/12/08 05:48:08;;;;;;;5.67;2.67;;;8.30;66.60;;;;;;4957328;28;20469;-53
2021/12/08 05:50:46;;;;;;;2.83;2.53;;;8.40;66.70;;;;;;4960750;28;20438;-55
2021/12/08 05:53:13;;;;;;;5.40;2.87;;;8.60;66.40;;;;;;4964397;28;20513;-54
2021/12/08 05:55:41;;;;;;;3.93;3.13;;;8.60;66.20;;;;;;4958496;28;20505;-55
2021/12/08 05:58:09;;;;;;;4.73;2.97;;;8.70;66.20;;;;;;4956181;28;20898;-51
2021/12/08 06:00:43;;;;;;;5.53;2.60;;;8.80;66.20;;;;;;4962492;28;20525;-54
2021/12/08 06:03:11;;;;;;;4.17;3.13;;;8.60;65.90;;;;;;4966509;28;20441;-51
2021/12/08 06:05:37;;;;;;;6.27;2.73;;;8.60;66.70;;;;;;4964130;28;20513;-53
2021/12/08 06:08:03;;;;;;;5.33;2.97;;;8.70;66.50;;;;;;4962561;28;20443;-54
2021/12/08 06:10:34;;;;;;;3.37;3.07;;;8.70;66.60;;;;;;4958994;28;20826;-54
2021/12/08 06:13:01;;;;;;;3.77;2.60;;;8.70;67.30;;;;;;4960009;28;20466;-54
2021/12/08 06:15:27;;;;;;;5.17;3.60;;;8.90;66.20;;;;;;4964053;28;20489;-51
2021/12/08 06:17:53;;;;;;;3.03;2.83;;;8.50;66.70;;;;;;4964711;28;20593;-54
2021/12/08 06:20:20;;;;;;;5.20;3.40;;;8.60;67.00;;;;;;4959745;28;20956;-54
2021/12/08 06:22:48;;;;;;;5.27;3.00;;;8.80;66.70;;;;;;4960423;28;20349;-51
2021/12/08 06:25:17;;;;;;;14.93;3.60;;;8.70;67.40;;;;;;4967151;28;20455;-50
2021/12/08 06:27:43;;;;;;;4.63;3.27;;;8.80;70.10;;;;;;4962437;28;20451;-50
2021/12/08 06:30:12;;;;;;;3.30;3.00;;;9.20;69.90;;;;;;4967635;28;22675;-51
2021/12/08 06:32:38;;;;;;;4.43;3.63;;;9.50;68.80;;;;;;4966127;28;20518;-51
2021/12/08 06:35:07;;;;;;;3.40;3.10;;;9.80;67.20;;;;;;4968090;28;20451;-51
2021/12/08 06:37:36;;;;;;;6.47;3.50;;;9.90;65.80;;;;;;4970761;28;20691;-54
2021/12/08 06:40:20;;;;;;;5.10;3.30;;;9.90;65.10;;;;;;4966439;28;20443;-52
2021/12/08 06:42:49;;;;;;;5.70;3.10;;;10.00;63.30;;;;;;4964469;28;20803;-51
2021/12/08 06:45:20;;;;;;;6.23;2.30;;;9.80;64.90;;;;;;4964173;28;20450;-51
2021/12/08 06:47:50;;;;;;;6.27;2.53;;;9.60;64.40;;;;;;4961783;28;20825;-50
2021/12/08 06:50:24;;;;;;;3.20;2.90;;;9.60;64.90;;;;;;4962118;28;20946;-52
2021/12/08 06:52:51;;;;;;;4.97;3.30;;;9.70;64.50;;;;;;4966510;28;20529;-50
2021/12/08 06:55:34;;;;;;;10.13;3.77;;;9.40;64.80;;;;;;4961138;28;20460;-51
2021/12/08 06:58:14;;;;;;;4.20;3.63;;;9.20;65.30;;;;;;4954117;28;21304;-50
2021/12/08 07:00:51;;;;;;;5.03;3.70;;;9.00;65.50;;;;;;4967935;28;20935;-50
2021/12/08 07:06:07;;;;;;;5.40;3.50;;;9.00;67.30;;;;;;4961181;28;20485;-50
2021/12/08 07:08:45;;;;;;;4.43;3.90;;;9.30;66.50;;;;;;4967842;28;20488;-51
2021/12/08 07:11:14;;;;;;;5.73;3.80;;;9.10;66.40;;;;;;4968450;28;20798;-52
2021/12/08 07:13:40;;;;;;;5.50;3.73;;;9.20;66.90;;;;;;4964756;28;20518;-53
2021/12/08 07:16:11;;;;;;;5.77;3.80;;;9.10;66.60;;;;;;4970862;28;21069;-51
2021/12/08 07:19:29;;;;;;;6.67;3.43;;;8.90;66.90;;;;;;4963798;28;20240;-54
2021/12/08 07:21:57;;;;;;;3.43;3.10;;;9.00;67.20;;;;;;4939278;28;20444;-53
2021/12/08 07:24:29;;;;;;;4.00;2.90;;;8.80;68.00;;;;;;4972864;28;20450;-53
2021/12/08 07:27:00;;;;;;;6.50;3.60;;;9.10;67.40;;;;;;4969628;28;20433;-53
2021/12/08 07:29:33;;;;;;;7.13;4.43;;;8.80;67.70;;;;;;4967444;28;20595;-51
2021/12/08 07:32:14;;;;;;;5.13;3.50;;;8.80;68.30;;;;;;4964187;28;20443;-52
2021/12/08 07:34:40;;;;;;;4.20;2.83;;;8.90;67.80;;;;;;4962461;28;20444;-51
2021/12/08 07:37:29;;;;;;;4.53;3.20;;;9.10;67.40;;;;;;4965203;28;20494;-54
2021/12/08 07:40:36;;;;;;;7.60;3.77;;;9.30;66.50;;;;;;4960486;28;20446;-52
2021/12/08 07:43:08;;;;;;;4.23;3.67;;;9.40;65.30;;;;;;4964564;28;20446;-52
2021/12/08 07:45:39;;;;;;;5.30;3.63;;;9.50;65.20;;;;;;4965684;28;20530;-52
2021/12/08 07:48:08;;;;;;;6.17;3.50;;;9.50;65.00;;;;;;4960053;28;20435;-52
2021/12/08 07:50:40;;;;;;;4.80;4.30;;;9.50;65.20;;;;;;4963791;28;20447;-52
2021/12/08 07:53:07;;;;;;;4.80;4.00;;;9.50;65.50;;;;;;4964995;28;20435;-52
2021/12/08 07:55:43;;;;;;;3.93;3.20;;;9.40;65.30;;;;;;4964155;28;20533;-51
2021/12/08 07:58:11;;;;;;;3.63;3.20;;;9.20;66.40;;;;;;4960860;28;20498;-55
2021/12/08 08:00:43;;;;;;;5.80;3.67;;;8.70;67.70;;;;;;4962789;28;20434;-54
2021/12/08 08:03:11;;;;;;;7.70;5.10;;;8.50;69.30;;;;;;4958230;28;20808;-57
2021/12/08 08:05:37;;;;;;;6.23;4.37;;;8.30;70.40;;;;;;4962911;28;20450;-54
2021/12/08 08:08:07;;;;;;;6.60;4.70;;;8.20;71.40;;;;;;4963486;28;20434;-54
2021/12/08 08:10:42;;;;;;;6.13;4.67;;;8.10;72.20;;;;;;4967630;28;20431;-51
2021/12/08 08:13:09;;;;;;;5.60;3.87;;;8.10;72.30;;;;;;4961460;28;20442;-55
2021/12/08 08:15:40;;;;;;;4.47;4.07;;;8.20;72.00;;;;;;4965132;28;20523;-55
2021/12/08 08:18:10;;;;;;;5.57;3.87;;;8.40;71.40;;;;;;4963713;28;20541;-54
2021/12/08 08:20:42;;;;;;;5.97;4.27;;;8.30;71.20;;;;;;4959327;28;20944;-55
2021/12/08 08:23:08;;;;;;;3.50;3.20;;;8.30;71.20;;;;;;4965883;28;20473;-53
2021/12/08 08:25:37;;;;;;;4.77;3.37;;;8.20;71.90;;;;;;4960357;28;20947;-53
2021/12/08 08:28:05;;;;;;;4.50;3.07;;;8.10;72.10;;;;;;4963531;28;20580;-55
2021/12/08 08:30:35;;;;;;;3.03;2.73;;;8.10;72.70;;;;;;4963970;28;20815;-54
2021/12/08 08:33:01;;;;;;;3.70;3.27;;;8.00;73.40;;;;;;4970121;28;20452;-56
2021/12/08 08:35:32;;;;;;;4.97;3.60;;;8.00;73.40;;;;;;4965345;28;20439;-54
2021/12/08 08:38:03;;;;;;;4.10;3.50;;;8.00;73.60;;;;;;4961602;28;20483;-54
2021/12/08 08:40:43;;;;;;;5.10;3.57;;;7.90;73.80;;;;;;4962653;28;20978;-55
2021/12/08 08:43:09;;;;;;;4.80;3.20;;;8.10;74.00;;;;;;4969103;28;20442;-54
2021/12/08 08:45:41;;;;;;;3.37;2.80;;;8.10;73.80;;;;;;4964302;28;20499;-55
2021/12/08 08:48:17;;;;;;;4.47;3.33;;;8.00;73.90;;;;;;4965552;28;20439;-55
2021/12/08 08:50:48;;;;;;;4.90;2.60;;;8.00;73.90;;;;;;4966529;28;20438;-54
2021/12/08 08:53:15;;;;;;;3.20;2.90;;;7.90;74.50;;;;;;4969419;28;20526;-51
2021/12/08 08:55:53;;;;;;;3.40;2.80;;;8.10;73.90;;;;;;4963437;28;20831;-53
2021/12/08 08:58:21;;;;;;;4.07;3.57;;;8.50;73.30;;;;;;4958880;28;20454;-56
2021/12/08 09:01:05;;;;;;;4.37;3.27;;;8.50;72.40;;;;;;4961515;28;20466;-57
2021/12/08 09:03:34;;;;;;;3.30;3.00;;;8.70;72.10;;;;;;4970812;28;20972;-55
2021/12/08 09:06:06;;;;;;;4.40;3.00;;;8.70;71.70;;;;;;4961634;28;20474;-55
2021/12/08 09:08:33;;;;;;;2.97;2.67;;;9.00;71.00;;;;;;4970270;28;20446;-55
2021/12/08 09:11:15;;;;;;;3.50;2.97;;;9.10;70.10;;;;;;4964994;28;20431;-57
2021/12/08 09:14:11;;;;;;;3.50;3.17;;;8.90;70.80;;;;;;4967406;28;20467;-57
2021/12/08 09:16:44;;;;;;;4.13;3.30;;;8.90;70.80;;;;;;4966440;28;20548;-57
2021/12/08 09:19:19;;;;;;;5.53;3.23;;;8.90;71.00;;;;;;4964266;28;20804;-51
2021/12/08 09:21:49;;;;;;;3.73;3.43;;;8.80;71.20;;;;;;4965542;28;20943;-56
2021/12/08 09:24:26;;;;;;;6.30;3.67;;;8.70;71.30;;;;;;4969879;28;20450;-56
2021/12/08 09:26:56;;;;;;;3.83;3.43;;;8.90;71.30;;;;;;4966629;28;20443;-55
2021/12/08 09:29:27;;;;;;;3.50;3.10;;;9.00;70.90;;;;;;4965762;28;20447;-56
2021/12/08 09:31:56;;;;;;;5.20;3.83;;;9.00;70.30;;;;;;4964136;28;20943;-54
2021/12/08 09:34:26;;;;;;;4.50;3.23;;;9.10;70.40;;;;;;4969429;28;20442;-52
2021/12/08 09:36:56;;;;;;;3.40;3.10;;;9.20;70.20;;;;;;4966056;28;20497;-56
2021/12/08 09:39:25;;;;;;;4.83;3.60;;;9.30;69.70;;;;;;4973845;28;20529;-53
2021/12/08 09:41:57;;;;;;;4.17;3.43;;;9.20;69.80;;;;;;4969705;28;20447;-54
2021/12/08 09:44:27;;;;;;;3.80;3.40;;;9.30;69.70;;;;;;4969270;28;20772;-54
2021/12/08 09:46:53;;;;;;;4.83;3.37;;;9.10;69.40;;;;;;4970238;28;20439;-54
2021/12/08 09:49:23;;;;;;;5.13;3.67;;;9.00;70.00;;;;;;4963483;28;20441;-52
2021/12/08 09:51:51;;;;;;;4.30;3.30;;;9.00;70.80;;;;;;4967710;28;20428;-56
2021/12/08 09:54:17;;;;;;;5.50;4.20;;;9.30;70.10;;;;;;4964012;28;20541;-53
2021/12/08 09:56:45;;;;;;;4.43;3.60;;;9.50;69.30;;;;;;4967044;28;20522;-56
2021/12/08 09:59:11;;;;;;;4.83;3.87;;;9.60;68.70;;;;;;4971733;28;20206;-54
2021/12/08 10:01:40;;;;;;;6.03;3.90;;;9.70;68.40;;;;;;4964512;28;20442;-56
2021/12/08 10:04:07;;;;;;;4.67;3.80;;;9.70;67.20;;;;;;4974212;28;20977;-54
2021/12/08 10:06:33;;;;;;;4.70;3.47;;;9.50;68.10;;;;;;4965667;28;20442;-55
2021/12/08 10:08:59;;;;;;;10.50;5.30;;;9.50;68.10;;;;;;4962756;28;20501;-57
2021/12/08 10:11:28;;;;;;;5.80;4.20;;;9.40;68.70;;;;;;4973995;28;20822;-56
2021/12/08 10:13:54;;;;;;;5.40;4.77;;;9.60;68.10;;;;;;4970225;28;20429;-52
2021/12/08 10:16:20;;;;;;;9.00;5.20;;;9.60;67.50;;;;;;4970236;28;20490;-54
2021/12/08 10:18:47;;;;;;;5.50;4.17;;;9.60;68.20;;;;;;4969274;28;20478;-56
2021/12/08 10:21:14;;;;;;;6.57;4.53;;;9.60;68.60;;;;;;4968426;28;20442;-53
2021/12/08 10:23:45;;;;;;;5.33;4.70;;;9.80;68.00;;;;;;4967034;28;20458;-55
2021/12/08 10:26:15;;;;;;;8.37;7.00;;;10.00;66.10;;;;;;4971456;28;20922;-54
2021/12/08 10:28:46;;;;;;;6.27;5.53;;;10.20;65.50;;;;;;4974052;28;20886;-56
2021/12/08 10:31:25;;;;;;;4.40;4.00;;;10.30;65.00;;;;;;4972863;28;20805;-55
2021/12/08 10:36:45;;;;;;;5.20;3.90;;;10.40;64.20;;;;;;4962648;28;20486;-56
2021/12/08 10:39:41;;;;;;;4.50;3.97;;;10.40;64.30;;;;;;4967441;28;20862;-54
2021/12/08 10:42:13;;;;;;;4.13;3.70;;;10.30;64.00;;;;;;4965786;28;20450;-57
2021/12/08 10:47:37;;;;;;;4.80;3.23;;;10.50;64.00;;;;;;4968809;28;20442;-56
2021/12/08 10:55:37;;;;;;;4.07;3.60;;;10.70;63.40;;;;;;4965077;28;20473;-52
2021/12/08 10:58:03;;;;;;;3.30;2.80;;;10.60;62.80;;;;;;4972667;28;20478;-54
2021/12/08 11:00:33;;;;;;;4.60;3.60;;;10.50;63.40;;;;;;4966929;28;20443;-54
2021/12/08 11:03:02;;;;;;;7.97;5.60;;;10.60;63.50;;;;;;4966648;28;20435;-52
2021/12/08 11:05:37;;;;;;;8.03;5.60;;;10.70;63.40;;;;;;4971814;28;20450;-54
2021/12/08 11:08:10;;;;;;;6.07;4.97;;;10.80;63.10;;;;;;4962252;28;20454;-54
2021/12/08 11:10:50;;;;;;;5.23;4.30;;;10.70;63.20;;;;;;4960562;28;20457;-54
2021/12/08 11:13:22;;;;;;;5.53;4.80;;;10.70;63.20;;;;;;4962301;28;20477;-50
2021/12/08 11:16:06;;;;;;;6.93;4.70;;;10.60;63.30;;;;;;4964062;28;20446;-53
2021/12/08 11:18:33;;;;;;;6.30;4.30;;;10.50;63.70;;;;;;4963424;28;20503;-53
2021/12/08 11:21:16;;;;;;;6.60;4.40;;;10.40;63.90;;;;;;4967240;28;20447;-50
2021/12/08 11:23:45;;;;;;;5.03;3.50;;;10.40;64.00;;;;;;4968140;28;20886;-54
2021/12/08 11:26:25;;;;;;;4.77;4.37;;;10.60;63.80;;;;;;4966391;28;20489;-53
2021/12/08 11:29:15;;;;;;;5.90;4.60;;;10.70;63.60;;;;;;4967903;28;20982;-50
2021/12/08 11:31:54;;;;;;;5.73;4.80;;;10.60;63.50;;;;;;4968105;28;20451;-53
2021/12/08 11:34:24;;;;;;;6.50;4.13;;;10.70;63.60;;;;;;4963163;28;20434;-52
2021/12/08 11:36:59;;;;;;;4.80;4.33;;;10.80;63.50;;;;;;4965785;28;20483;-53
2021/12/08 11:39:38;;;;;;;5.70;5.10;;;10.90;63.20;;;;;;4961855;28;20768;-53
2021/12/08 11:42:10;;;;;;;6.77;4.30;;;11.00;62.90;;;;;;4967295;28;20431;-51
2021/12/08 11:44:41;;;;;;;6.83;4.70;;;11.00;62.60;;;;;;4966981;28;20540;-52
2021/12/08 11:47:13;;;;;;;4.70;4.17;;;11.10;62.50;;;;;;4970221;28;20518;-51
2021/12/08 11:49:43;;;;;;;6.30;5.67;;;11.10;62.00;;;;;;4971202;28;20443;-50
2021/12/08 11:52:18;;;;;;;7.17;4.90;;;11.20;62.00;;;;;;4968896;28;20431;-50
2021/12/08 11:54:59;;;;;;;7.47;5.13;;;11.20;61.60;;;;;;4966961;28;20477;-52
2021/12/08 11:57:34;;;;;;;6.43;5.10;;;11.30;61.60;;;;;;4970599;28;20493;-50
2021/12/08 12:00:05;;;;;;;6.83;4.60;;;11.30;61.20;;;;;;4971568;28;20446;-51
2021/12/08 12:02:59;;;;;;;6.10;4.00;;;11.30;61.40;;;;;;4964489;28;20447;-52
2021/12/08 12:05:30;;;;;;;4.03;3.67;;;11.40;62.00;;;;;;4957283;28;20848;-51
2021/12/08 12:07:56;;;;;;;4.47;4.07;;;11.40;62.10;;;;;;4966540;28;20450;-52
2021/12/08 12:10:28;;;;;;;6.83;5.90;;;11.40;62.40;;;;;;4969267;28;20435;-50
2021/12/08 12:12:54;;;;;;;18.30;16.53;;;11.40;62.30;;;;;;4958199;28;20533;-51
2021/12/08 12:15:21;;;;;;;6.87;5.33;;;11.40;62.40;;;;;;4963154;28;20522;-53
2021/12/08 12:17:47;;;;;;;7.20;6.60;;;11.50;62.40;;;;;;4967768;28;20263;-51
2021/12/08 12:20:30;;;;;;;9.20;7.87;;;11.50;62.30;;;;;;4965557;28;20519;-50
2021/12/08 12:23:08;;;;;;;7.57;5.80;;;11.50;62.30;;;;;;4962652;28;20441;-53
2021/12/08 12:25:52;;;;;;;9.20;8.40;;;11.50;62.30;;;;;;4963619;28;20458;-50
2021/12/08 12:28:36;;;;;;;6.83;6.23;;;11.50;62.30;;;;;;4968879;28;20447;-54
2021/12/08 12:31:23;;;;;;;4.60;4.20;;;11.50;62.10;;;;;;4964289;28;20856;-53
2021/12/08 12:33:51;;;;;;;6.83;4.60;;;11.50;62.10;;;;;;4968084;28;20801;-51
2021/12/08 12:36:37;;;;;;;4.43;4.10;;;11.50;61.70;;;;;;4967413;28;20446;-51
2021/12/08 12:39:24;;;;;;;4.77;3.90;;;11.50;61.80;;;;;;4966888;28;20445;-52
2021/12/08 12:42:12;;;;;;;4.80;4.40;;;11.50;61.50;;;;;;4969001;28;20450;-53
2021/12/08 12:44:41;;;;;;;4.00;3.43;;;11.60;61.60;;;;;;4967930;28;20817;-53
2021/12/08 12:47:21;;;;;;;5.77;4.97;;;11.60;61.60;;;;;;4968170;28;20558;-54
2021/12/08 12:50:03;;;;;;;6.20;5.50;;;11.40;61.20;;;;;;4969611;28;20458;-53
2021/12/08 12:52:53;;;;;;;7.03;6.33;;;11.20;61.90;;;;;;4968151;28;21174;-54
2021/12/08 12:55:26;;;;;;;12.70;11.50;;;11.10;62.50;;;;;;4965653;28;20502;-53
2021/12/08 12:58:01;;;;;;;13.63;12.17;;;11.20;62.70;;;;;;4961686;28;20490;-53
2021/12/08 13:00:30;;;;;;;10.77;9.70;;;11.20;62.70;;;;;;4959552;28;20794;-54
2021/12/08 13:02:55;;;;;;;11.00;6.93;;;11.20;62.90;;;;;;4964950;28;20439;-51
2021/12/08 13:05:21;;;;;;;7.90;6.03;;;11.10;62.70;;;;;;4967778;28;20433;-53
2021/12/08 13:07:58;;;;;;;9.27;7.67;;;11.00;62.70;;;;;;4964151;28;20671;-55
2021/12/08 13:10:36;;;;;;;7.83;6.77;;;11.10;62.70;;;;;;4968614;28;20199;-51
2021/12/08 13:13:14;;;;;;;8.80;6.60;;;11.20;63.30;;;;;;4966987;28;20864;-53
2021/12/08 13:15:47;;;;;;;9.30;7.90;;;11.40;63.70;;;;;;4972489;28;20442;-52
2021/12/08 13:18:15;;;;;;;10.13;6.83;;;11.60;63.70;;;;;;4972616;28;20502;-51
2021/12/08 13:20:46;;;;;;;6.77;6.07;;;11.70;62.40;;;;;;4968590;28;20533;-51
2021/12/08 13:23:21;;;;;;;7.33;5.87;;;11.80;63.00;;;;;;4973306;28;20453;-51
2021/12/08 13:26:18;;;;;;;7.83;5.63;;;11.90;61.90;;;;;;4967841;28;20507;-54
2021/12/08 13:31:30;;;;;;;6.50;5.90;;;12.00;60.70;;;;;;4968346;28;20446;-56
2021/12/08 13:34:04;;;;;;;9.47;5.50;;;12.00;60.20;;;;;;4968855;28;20439;-56
2021/12/08 13:36:39;;;;;;;7.13;5.70;;;12.00;60.00;;;;;;4967271;28;20490;-56
2021/12/08 13:39:14;;;;;;;6.50;5.90;;;12.10;59.90;;;;;;4970908;28;20478;-56
2021/12/08 13:41:54;;;;;;;6.00;5.33;;;12.10;59.90;;;;;;4963827;28;20445;-52
2021/12/08 13:44:22;;;;;;;5.93;5.30;;;12.00;59.80;;;;;;4972539;28;20454;-54
2021/12/08 13:46:51;;;;;;;6.70;5.90;;;12.10;60.00;;;;;;4958389;28;20432;-56
2021/12/08 13:49:19;;;;;;;8.50;5.70;;;12.10;59.70;;;;;;4969741;28;20494;-56
2021/12/08 13:52:06;;;;;;;5.13;4.67;;;12.10;59.50;;;;;;4970848;28;20534;-55
2021/12/08 13:54:42;;;;;;;6.33;5.77;;;12.20;59.40;;;;;;4965332;28;20518;-56
2021/12/08 13:57:29;;;;;;;6.00;5.33;;;12.30;59.30;;;;;;4968842;28;20605;-55
2021/12/08 14:00:15;;;;;;;8.73;5.90;;;12.40;59.10;;;;;;4972459;28;20449;-53
2021/12/08 14:02:41;;;;;;;9.77;6.30;;;12.40;59.70;;;;;;4968282;28;20521;-53
2021/12/08 14:05:19;;;;;;;6.47;5.80;;;12.40;58.90;;;;;;4965541;28;20592;-53
2021/12/08 14:07:54;;;;;;;7.50;6.80;;;12.30;59.10;;;;;;4968833;28;20233;-54
2021/12/08 14:10:35;;;;;;;7.67;6.83;;;12.40;59.00;;;;;;4969230;28;20446;-54
2021/12/08 14:13:08;;;;;;;7.87;6.27;;;12.40;58.80;;;;;;4967156;28;20446;-53
2021/12/08 14:15:40;;;;;;;7.50;5.83;;;12.40;58.70;;;;;;4967731;28;20454;-53
2021/12/08 14:18:20;;;;;;;10.00;6.60;;;12.50;58.70;;;;;;4967139;28;20494;-50
2021/12/08 14:20:50;;;;;;;9.23;6.80;;;12.50;58.60;;;;;;4968680;28;20538;-53